createdAt,value
2017-09-25T00:00:38.869Z,78.50
2017-09-25T00:01:38.853Z,78.11
2017-09-25T00:02:38.840Z,78.50
2017-09-25T00:03:38.983Z,77.83
2017-09-25T00:04:38.815Z,77.55
2017-09-25T00:05:38.953Z,77.64
2017-09-25T00:06:38.789Z,77.73
2017-09-25T00:07:38.779Z,77.36
2017-09-25T00:08:38.764Z,77.92
2017-09-25T00:09:38.902Z,78.11
2017-09-25T00:10:38.743Z,78.30
2017-09-25T00:11:38.730Z,78.69
2017-09-25T00:12:38.717Z,78.59
2017-09-25T00:13:38.700Z,79.06
2017-09-25T00:14:38.691Z,79.06
2017-09-25T00:15:38.824Z,78.97
2017-09-25T00:16:38.660Z,79.63
2017-09-25T00:17:38.652Z,78.30
2017-09-25T00:18:38.636Z,78.30
2017-09-25T00:19:38.622Z,78.97
2017-09-25T00:20:38.610Z,78.88
2017-09-25T00:21:38.751Z,78.97
2017-09-25T00:22:38.584Z,79.06
2017-09-25T00:23:38.569Z,79.54
2017-09-25T00:24:38.556Z,79.06
2017-09-25T00:25:38.550Z,79.35
2017-09-25T00:26:38.533Z,79.63
2017-09-25T00:27:38.668Z,78.30
2017-09-25T00:28:38.506Z,78.50
2017-09-25T00:29:38.499Z,79.44
2017-09-25T00:30:38.481Z,79.63
2017-09-25T00:31:38.467Z,78.40
2017-09-25T00:32:38.455Z,78.78
2017-09-25T00:33:38.591Z,78.97
2017-09-25T00:34:38.436Z,78.30
2017-09-25T00:35:38.421Z,78.59
2017-09-25T00:36:38.407Z,78.50
2017-09-25T00:37:38.397Z,78.50
2017-09-25T00:38:38.387Z,79.16
2017-09-25T00:39:38.513Z,78.50
2017-09-25T00:40:38.352Z,78.02
2017-09-25T00:41:38.343Z,78.40
2017-09-25T00:42:38.324Z,78.21
2017-09-25T00:43:38.310Z,78.40
2017-09-25T00:44:38.299Z,78.11
2017-09-25T00:45:38.437Z,78.30
2017-09-25T00:46:38.274Z,77.73
2017-09-25T00:47:38.263Z,77.64
2017-09-25T00:48:38.252Z,77.64
2017-09-25T00:49:38.234Z,77.36
2017-09-25T00:50:38.221Z,77.55
2017-09-25T00:51:38.360Z,78.21
2017-09-25T00:52:38.195Z,78.30
2017-09-25T00:53:38.180Z,78.21
2017-09-25T00:54:38.168Z,78.40
2017-09-25T00:55:38.154Z,78.50
2017-09-25T00:56:38.142Z,78.30
2017-09-25T00:57:38.280Z,78.21
2017-09-25T00:58:38.121Z,78.30
2017-09-25T00:59:38.102Z,78.30
2017-09-25T01:00:38.094Z,78.30
2017-09-25T01:01:38.077Z,78.30
2017-09-25T01:02:38.062Z,78.02
2017-09-25T01:03:38.199Z,78.40
2017-09-25T01:04:38.035Z,78.59
2017-09-25T01:05:38.029Z,78.59
2017-09-25T01:06:38.010Z,78.59
2017-09-25T01:07:37.997Z,78.97
2017-09-25T01:08:37.983Z,78.88
2017-09-25T01:09:38.121Z,79.06
2017-09-25T01:10:37.956Z,79.06
2017-09-25T01:11:37.942Z,78.97
2017-09-25T01:12:37.936Z,79.25
2017-09-25T01:13:37.920Z,79.44
2017-09-25T01:14:37.903Z,79.63
2017-09-25T01:15:38.041Z,79.44
2017-09-25T01:16:37.883Z,79.63
2017-09-25T01:17:37.870Z,78.88
2017-09-25T01:18:37.851Z,79.06
2017-09-25T01:19:37.839Z,78.97
2017-09-25T01:20:37.830Z,79.35
2017-09-25T01:21:37.963Z,79.44
2017-09-25T01:22:37.956Z,79.35
2017-09-25T01:23:37.785Z,79.06
2017-09-25T01:24:37.771Z,78.64
2017-09-25T01:25:37.760Z,78.93
2017-09-25T01:26:37.745Z,79.06
2017-09-25T01:27:37.733Z,78.59
2017-09-25T01:28:37.875Z,78.59
2017-09-25T01:29:37.706Z,78.45
2017-09-25T01:30:37.694Z,79.25
2017-09-25T01:31:37.685Z,79.06
2017-09-25T01:32:37.672Z,79.35
2017-09-25T01:33:37.653Z,79.25
2017-09-25T01:34:37.797Z,79.22
2017-09-25T01:35:37.626Z,79.25
2017-09-25T01:36:37.614Z,79.35
2017-09-25T01:37:37.600Z,79.44
2017-09-25T01:38:37.587Z,79.44
2017-09-25T01:39:37.580Z,79.63
2017-09-25T01:40:37.709Z,79.22
2017-09-25T01:41:37.702Z,79.03
2017-09-25T01:42:37.535Z,79.41
2017-09-25T01:43:37.525Z,79.69
2017-09-25T01:44:37.506Z,79.60
2017-09-25T01:45:37.492Z,79.60
2017-09-25T01:46:37.480Z,79.69
2017-09-25T01:47:37.616Z,79.41
2017-09-25T01:48:37.458Z,79.16
2017-09-25T01:49:37.439Z,79.69
2017-09-25T01:50:37.427Z,79.41
2017-09-25T01:51:37.412Z,79.60
2017-09-25T01:52:37.404Z,79.69
2017-09-25T01:53:37.537Z,80.07
2017-09-25T01:54:37.373Z,79.97
2017-09-25T01:55:37.358Z,79.88
2017-09-25T01:56:37.347Z,79.41
2017-09-25T01:57:37.333Z,79.41
2017-09-25T01:58:37.319Z,79.12
2017-09-25T01:59:37.456Z,79.12
2017-09-25T02:00:37.294Z,79.73
2017-09-25T02:01:37.279Z,79.31
2017-09-25T02:02:37.271Z,79.54
2017-09-25T02:03:37.257Z,80.26
2017-09-25T02:04:37.245Z,79.88
2017-09-25T02:05:37.384Z,80.07
2017-09-25T02:06:37.213Z,79.88
2017-09-25T02:07:37.199Z,80.07
2017-09-25T02:08:37.192Z,79.41
2017-09-25T02:09:37.172Z,79.60
2017-09-25T02:10:37.160Z,79.60
2017-09-25T02:11:37.301Z,79.60
2017-09-25T02:12:37.134Z,80.16
2017-09-25T02:13:37.124Z,79.88
2017-09-25T02:14:37.107Z,80.02
2017-09-25T02:15:37.093Z,80.07
2017-09-25T02:16:37.236Z,79.73
2017-09-25T02:17:37.217Z,79.79
2017-09-25T02:18:37.053Z,79.41
2017-09-25T02:19:37.040Z,79.79
2017-09-25T02:20:37.026Z,79.44
2017-09-25T02:21:37.015Z,79.12
2017-09-25T02:22:37.012Z,79.22
2017-09-25T02:23:37.136Z,79.25
2017-09-25T02:24:36.974Z,79.25
2017-09-25T02:25:36.966Z,79.06
2017-09-25T02:26:36.953Z,79.25
2017-09-25T02:27:36.933Z,78.97
2017-09-25T02:28:36.920Z,78.93
2017-09-25T02:29:37.057Z,78.40
2017-09-25T02:30:36.894Z,79.31
2017-09-25T02:31:36.881Z,78.64
2017-09-25T02:32:36.868Z,79.03
2017-09-25T02:33:36.854Z,78.97
2017-09-25T02:34:36.845Z,79.03
2017-09-25T02:35:36.977Z,79.25
2017-09-25T02:36:36.813Z,79.22
2017-09-25T02:37:36.800Z,79.22
2017-09-25T02:38:36.788Z,78.78
2017-09-25T02:39:36.923Z,78.30
2017-09-25T02:40:36.763Z,78.40
2017-09-25T02:41:36.898Z,79.16
2017-09-25T02:42:36.736Z,79.35
2017-09-25T02:43:36.720Z,79.35
2017-09-25T02:44:36.706Z,79.35
2017-09-25T02:45:36.695Z,79.41
2017-09-25T02:46:36.680Z,79.12
2017-09-25T02:47:36.817Z,79.41
2017-09-25T02:48:36.653Z,79.25
2017-09-25T02:49:36.643Z,79.35
2017-09-25T02:50:36.628Z,79.41
2017-09-25T02:51:36.614Z,79.22
2017-09-25T02:52:36.602Z,79.22
2017-09-25T02:53:36.745Z,79.44
2017-09-25T02:54:36.581Z,79.31
2017-09-25T02:55:36.560Z,78.93
2017-09-25T02:56:36.548Z,79.41
2017-09-25T02:57:36.534Z,79.06
2017-09-25T02:58:36.522Z,79.22
2017-09-25T02:59:36.658Z,79.22
2017-09-25T03:00:36.496Z,78.97
2017-09-25T03:01:36.486Z,78.74
2017-09-25T03:02:36.467Z,79.16
2017-09-25T03:03:36.454Z,79.22
2017-09-25T03:04:36.441Z,79.12
2017-09-25T03:05:36.584Z,79.31
2017-09-25T03:06:36.417Z,79.12
2017-09-25T03:07:36.400Z,79.22
2017-09-25T03:08:36.386Z,79.03
2017-09-25T03:09:36.375Z,79.44
2017-09-25T03:10:36.362Z,79.12
2017-09-25T03:11:36.503Z,79.16
2017-09-25T03:12:36.334Z,79.12
2017-09-25T03:13:36.336Z,79.22
2017-09-25T03:14:36.310Z,79.03
2017-09-25T03:15:36.298Z,79.12
2017-09-25T03:16:36.281Z,79.50
2017-09-25T03:17:36.416Z,78.55
2017-09-25T03:18:36.403Z,79.35
2017-09-25T03:19:36.245Z,79.31
2017-09-25T03:20:36.228Z,79.22
2017-09-25T03:21:36.213Z,79.25
2017-09-25T03:22:36.201Z,79.06
2017-09-25T03:23:36.339Z,78.93
2017-09-25T03:24:36.179Z,79.50
2017-09-25T03:25:36.163Z,78.83
2017-09-25T03:26:36.303Z,78.64
2017-09-25T03:27:36.137Z,78.59
2017-09-25T03:28:36.121Z,79.12
2017-09-25T03:29:36.260Z,79.12
2017-09-25T03:30:36.095Z,79.12
2017-09-25T03:31:36.081Z,78.93
2017-09-25T03:32:36.065Z,79.22
2017-09-25T03:33:36.059Z,79.22
2017-09-25T03:34:36.191Z,79.41
2017-09-25T03:35:36.176Z,79.03
2017-09-25T03:36:36.012Z,79.31
2017-09-25T03:37:35.998Z,79.12
2017-09-25T03:38:35.985Z,79.22
2017-09-25T03:39:35.973Z,79.41
2017-09-25T03:40:36.116Z,79.73
2017-09-25T03:41:35.951Z,79.16
2017-09-25T03:42:35.932Z,79.12
2017-09-25T03:43:35.917Z,79.03
2017-09-25T03:44:35.905Z,79.12
2017-09-25T03:45:35.891Z,78.83
2017-09-25T03:46:36.030Z,79.12
2017-09-25T03:47:35.863Z,78.93
2017-09-25T03:48:35.852Z,78.83
2017-09-25T03:49:35.837Z,78.83
2017-09-25T03:50:35.825Z,79.12
2017-09-25T03:51:35.816Z,79.03
2017-09-25T03:52:35.947Z,79.12
2017-09-25T03:53:35.788Z,79.31
2017-09-25T03:54:35.771Z,79.03
2017-09-25T03:55:35.762Z,79.03
2017-09-25T03:56:35.743Z,79.03
2017-09-25T03:57:35.729Z,78.83
2017-09-25T03:58:35.872Z,79.12
2017-09-25T03:59:35.703Z,79.03
2017-09-25T04:00:35.700Z,79.31
2017-09-25T04:01:35.677Z,79.50
2017-09-25T04:02:35.663Z,80.07
2017-09-25T04:03:35.648Z,79.69
2017-09-25T04:04:35.636Z,79.31
2017-09-25T04:05:35.777Z,79.31
2017-09-25T04:06:35.618Z,79.22
2017-09-25T04:07:35.594Z,79.12
2017-09-25T04:08:35.582Z,79.03
2017-09-25T04:09:35.569Z,79.22
2017-09-25T04:10:35.554Z,79.69
2017-09-25T04:11:35.691Z,79.60
2017-09-25T04:12:35.532Z,79.31
2017-09-25T04:13:35.669Z,79.22
2017-09-25T04:14:35.501Z,79.50
2017-09-25T04:15:35.487Z,79.79
2017-09-25T04:16:35.473Z,79.60
2017-09-25T04:17:35.609Z,79.69
2017-09-25T04:18:35.447Z,79.50
2017-09-25T04:19:35.432Z,80.07
2017-09-25T04:20:35.419Z,79.79
2017-09-25T04:21:35.405Z,79.60
2017-09-25T04:22:35.392Z,79.41
2017-09-25T04:23:35.535Z,79.60
2017-09-25T04:24:35.514Z,79.97
2017-09-25T04:25:35.357Z,79.79
2017-09-25T04:26:35.343Z,80.07
2017-09-25T04:27:35.328Z,79.79
2017-09-25T04:28:35.317Z,79.97
2017-09-25T04:29:35.297Z,79.88
2017-09-25T04:30:35.439Z,80.07
2017-09-25T04:31:35.270Z,79.79
2017-09-25T04:32:35.256Z,79.22
2017-09-25T04:33:35.243Z,79.69
2017-09-25T04:34:35.235Z,80.16
2017-09-25T04:35:35.218Z,79.79
2017-09-25T04:36:35.365Z,80.07
2017-09-25T04:37:35.189Z,80.07
2017-09-25T04:38:35.176Z,79.69
2017-09-25T04:39:35.162Z,79.88
2017-09-25T04:40:35.147Z,79.60
2017-09-25T04:41:35.134Z,79.69
2017-09-25T04:42:35.276Z,79.60
2017-09-25T04:43:35.106Z,79.97
2017-09-25T04:44:35.099Z,79.79
2017-09-25T04:45:35.080Z,79.79
2017-09-25T04:46:35.066Z,79.79
2017-09-25T04:47:35.052Z,80.16
2017-09-25T04:48:35.198Z,80.07
2017-09-25T04:49:35.031Z,79.79
2017-09-25T04:50:35.013Z,79.79
2017-09-25T04:51:34.997Z,79.79
2017-09-25T04:52:34.983Z,79.97
2017-09-25T04:53:34.970Z,79.88
2017-09-25T04:54:35.114Z,79.55
2017-09-25T04:55:34.942Z,79.84
2017-09-25T04:56:34.930Z,79.84
2017-09-25T04:57:34.962Z,80.03
2017-09-25T04:58:34.937Z,79.55
2017-09-25T04:59:34.895Z,79.84
2017-09-25T05:00:35.023Z,79.84
2017-09-25T05:01:34.917Z,80.22
2017-09-25T05:02:34.851Z,80.13
2017-09-25T05:03:34.835Z,80.22
2017-09-25T05:04:34.817Z,80.22
2017-09-25T05:05:34.801Z,80.41
2017-09-25T05:06:34.939Z,80.51
2017-09-25T05:07:34.773Z,80.60
2017-09-25T05:08:34.761Z,80.69
2017-09-25T05:09:34.752Z,80.69
2017-09-25T05:10:34.732Z,80.69
2017-09-25T05:11:34.723Z,80.79
2017-09-25T05:12:34.853Z,80.41
2017-09-25T05:13:34.689Z,80.51
2017-09-25T05:14:34.677Z,80.69
2017-09-25T05:15:34.666Z,80.69
2017-09-25T05:16:34.802Z,80.60
2017-09-25T05:17:34.784Z,80.60
2017-09-25T05:18:34.618Z,81.07
2017-09-25T05:19:34.603Z,81.07
2017-09-25T05:20:34.588Z,81.17
2017-09-25T05:21:34.575Z,80.98
2017-09-25T05:22:34.561Z,80.88
2017-09-25T05:23:34.695Z,81.17
2017-09-25T05:24:34.532Z,81.17
2017-09-25T05:25:34.525Z,81.17
2017-09-25T05:26:34.504Z,81.26
2017-09-25T05:27:34.488Z,80.69
2017-09-25T05:30:28.689Z,80.69
2017-09-25T05:31:28.521Z,81.07
2017-09-25T05:32:28.508Z,81.36
2017-09-25T05:33:28.492Z,81.17
2017-09-25T05:34:28.479Z,81.36
2017-09-25T05:35:28.465Z,81.07
2017-09-25T05:36:28.601Z,81.17
2017-09-25T05:37:28.434Z,81.17
2017-09-25T05:38:28.421Z,81.26
2017-09-25T05:39:28.408Z,81.26
2017-09-25T05:40:28.392Z,81.45
2017-09-25T05:41:28.380Z,81.93
2017-09-25T05:42:28.514Z,81.84
2017-09-25T05:43:28.349Z,81.65
2017-09-25T05:44:28.336Z,81.55
2017-09-25T05:45:28.321Z,80.69
2017-09-25T05:46:28.307Z,80.88
2017-09-25T05:47:28.293Z,80.69
2017-09-25T05:48:28.431Z,81.07
2017-09-25T05:49:28.264Z,80.88
2017-09-25T05:50:28.249Z,81.36
2017-09-25T05:51:28.235Z,82.03
2017-09-25T05:52:28.221Z,81.74
2017-09-25T05:53:28.207Z,81.45
2017-09-25T05:54:28.342Z,81.74
2017-09-25T05:55:28.177Z,81.84
2017-09-25T05:56:28.163Z,81.93
2017-09-25T05:57:28.149Z,81.65
2017-09-25T05:58:28.135Z,81.65
2017-09-25T05:59:28.121Z,81.45
2017-09-25T06:00:28.255Z,80.88
2017-09-25T06:01:28.092Z,80.88
2017-09-25T06:02:28.078Z,81.07
2017-09-25T06:03:28.063Z,81.36
2017-09-25T06:04:28.049Z,81.84
2017-09-25T06:05:28.033Z,81.65
2017-09-25T06:06:28.170Z,81.84
2017-09-25T06:07:28.006Z,81.26
2017-09-25T06:08:27.992Z,81.17
2017-09-25T06:09:27.977Z,81.17
2017-09-25T06:10:27.961Z,81.26
2017-09-25T06:11:27.948Z,81.45
2017-09-25T06:12:28.084Z,80.88
2017-09-25T06:13:27.919Z,81.17
2017-09-25T06:14:27.904Z,81.17
2017-09-25T06:15:27.889Z,80.98
2017-09-25T06:16:27.878Z,81.26
2017-09-25T06:17:27.862Z,81.36
2017-09-25T06:18:28.070Z,80.98
2017-09-25T06:19:27.839Z,81.36
2017-09-25T06:20:27.835Z,80.74
2017-09-25T06:21:27.815Z,80.98
2017-09-25T06:22:27.796Z,80.74
2017-09-25T06:23:27.794Z,79.55
2017-09-25T06:24:27.986Z,79.55
2017-09-25T06:25:27.756Z,79.88
2017-09-25T06:26:27.750Z,80.32
2017-09-25T06:27:27.730Z,80.74
2017-09-25T06:28:27.714Z,80.79
2017-09-25T06:29:27.694Z,80.64
2017-09-25T06:30:27.830Z,81.02
2017-09-25T06:31:27.672Z,85.11
2017-09-25T06:32:27.667Z,86.05
2017-09-25T06:33:27.638Z,85.24
2017-09-25T06:34:27.624Z,83.62
2017-09-25T06:35:27.611Z,79.25
2017-09-25T06:36:27.813Z,76.40
2017-09-25T06:37:27.585Z,75.21
2017-09-25T06:38:27.574Z,75.49
2017-09-25T06:39:27.560Z,74.92
2017-09-25T06:40:27.546Z,73.40
2017-09-25T06:41:27.535Z,71.69
2017-09-25T06:42:27.673Z,73.30
2017-09-25T06:43:27.508Z,73.59
2017-09-25T06:44:27.494Z,73.25
2017-09-25T06:45:27.500Z,72.77
2017-09-25T06:46:27.481Z,70.87
2017-09-25T06:47:27.475Z,72.58
2017-09-25T06:48:27.666Z,71.76
2017-09-25T06:49:27.434Z,72.14
2017-09-25T06:50:27.421Z,70.75
2017-09-25T06:51:27.416Z,68.46
2017-09-25T06:52:27.399Z,66.94
2017-09-25T06:53:27.386Z,66.66
2017-09-25T06:54:27.526Z,66.66
2017-09-25T06:55:27.367Z,66.75
2017-09-25T06:56:27.356Z,66.62
2017-09-25T06:57:27.343Z,68.90
2017-09-25T06:58:27.334Z,68.43
2017-09-25T06:59:27.321Z,67.29
2017-09-25T07:00:27.460Z,66.72
2017-09-25T07:01:27.448Z,66.75
2017-09-25T07:02:27.286Z,67.13
2017-09-25T07:03:27.276Z,66.56
2017-09-25T07:04:27.266Z,66.27
2017-09-25T07:05:27.253Z,67.32
2017-09-25T07:06:27.243Z,65.32
2017-09-25T07:07:27.381Z,67.29
2017-09-25T07:08:27.222Z,67.86
2017-09-25T07:09:27.209Z,67.47
2017-09-25T07:10:27.199Z,67.99
2017-09-25T07:11:27.187Z,65.42
2017-09-25T07:12:27.176Z,64.02
2017-09-25T07:13:27.317Z,61.00
2017-09-25T07:14:27.157Z,60.72
2017-09-25T07:15:27.144Z,60.84
2017-09-25T07:16:27.133Z,59.60
2017-09-25T07:17:27.126Z,58.48
2017-09-25T07:18:27.114Z,58.48
2017-09-25T07:19:27.255Z,55.18
2017-09-25T07:20:27.093Z,56.06
2017-09-25T07:21:27.084Z,52.15
2017-09-25T07:22:27.081Z,51.95
2017-09-25T07:23:27.064Z,51.17
2017-09-25T07:24:27.056Z,49.93
2017-09-25T07:25:27.195Z,52.12
2017-09-25T07:26:27.034Z,52.40
2017-09-25T07:27:27.026Z,51.43
2017-09-25T07:28:27.047Z,52.19
2017-09-25T07:29:27.007Z,50.57
2017-09-25T07:30:26.997Z,49.99
2017-09-25T07:31:27.139Z,51.23
2017-09-25T07:32:26.980Z,50.95
2017-09-25T07:33:26.968Z,52.57
2017-09-25T07:34:26.960Z,52.28
2017-09-25T07:35:26.952Z,52.09
2017-09-25T07:36:26.943Z,52.57
2017-09-25T07:37:27.081Z,51.43
2017-09-25T07:38:26.921Z,50.76
2017-09-25T07:39:26.913Z,54.79
2017-09-25T07:40:26.905Z,56.70
2017-09-25T07:41:26.894Z,54.13
2017-09-25T07:42:26.887Z,52.91
2017-09-25T07:43:27.025Z,50.64
2017-09-25T07:44:26.869Z,49.88
2017-09-25T07:45:26.859Z,48.66
2017-09-25T07:46:26.849Z,49.07
2017-09-25T07:47:26.841Z,47.44
2017-09-25T07:48:26.831Z,46.51
2017-09-25T07:49:26.972Z,46.70
2017-09-25T07:50:26.814Z,45.86
2017-09-25T07:51:26.807Z,44.06
2017-09-25T07:52:26.796Z,42.13
2017-09-25T07:53:26.787Z,42.68
2017-09-25T07:54:26.779Z,45.91
2017-09-25T07:55:26.919Z,47.13
2017-09-25T07:56:26.761Z,47.97
2017-09-25T07:57:26.751Z,50.35
2017-09-25T07:58:26.745Z,52.17
2017-09-25T07:59:26.735Z,50.84
2017-09-25T08:00:26.726Z,50.00
2017-09-25T08:01:26.866Z,47.63
2017-09-25T08:02:26.706Z,46.25
2017-09-25T08:03:26.700Z,44.45
2017-09-25T08:04:26.689Z,41.93
2017-09-25T08:05:26.682Z,39.54
2017-09-25T08:06:26.675Z,38.43
2017-09-25T08:07:26.816Z,37.01
2017-09-25T08:08:26.659Z,35.30
2017-09-25T08:09:26.677Z,33.47
2017-09-25T08:10:26.645Z,32.62
2017-09-25T08:11:26.791Z,31.19
2017-09-25T08:12:26.636Z,32.46
2017-09-25T08:13:26.777Z,32.38
2017-09-25T08:14:26.624Z,29.49
2017-09-25T08:15:26.619Z,27.94
2017-09-25T08:16:26.617Z,28.25
2017-09-25T08:17:26.612Z,28.16
2017-09-25T08:18:26.610Z,26.15
2017-09-25T08:19:26.758Z,25.78
2017-09-25T08:20:26.607Z,25.97
2017-09-25T08:21:26.603Z,26.06
2017-09-25T08:22:26.604Z,26.91
2017-09-25T08:23:26.604Z,28.05
2017-09-25T08:24:26.605Z,28.91
2017-09-25T08:25:26.756Z,29.28
2017-09-25T08:26:26.612Z,29.55
2017-09-25T08:27:26.608Z,30.31
2017-09-25T08:28:26.610Z,31.26
2017-09-25T08:29:26.613Z,32.97
2017-09-25T08:30:26.766Z,34.59
2017-09-25T08:31:26.772Z,36.11
2017-09-25T08:32:26.625Z,36.66
2017-09-25T08:33:26.631Z,37.05
2017-09-25T08:34:26.634Z,38.68
2017-09-25T08:35:26.640Z,38.76
2017-09-25T08:36:26.646Z,36.55
2017-09-25T08:37:26.803Z,38.35
2017-09-25T08:38:26.657Z,39.41
2017-09-25T08:39:26.817Z,38.74
2017-09-25T08:40:26.673Z,39.87
2017-09-25T08:41:26.679Z,40.64
2017-09-25T08:42:26.688Z,41.57
2017-09-25T08:43:26.845Z,41.67
2017-09-25T08:44:26.703Z,40.71
2017-09-25T08:45:26.862Z,42.34
2017-09-25T08:46:26.719Z,42.72
2017-09-25T08:47:26.727Z,43.27
2017-09-25T08:48:26.733Z,42.70
2017-09-25T08:49:26.896Z,44.33
2017-09-25T08:50:26.748Z,45.76
2017-09-25T08:51:26.756Z,43.85
2017-09-25T08:52:26.764Z,44.98
2017-09-25T08:53:26.776Z,45.65
2017-09-25T08:54:26.929Z,45.07
2017-09-25T08:55:26.786Z,45.07
2017-09-25T08:56:26.945Z,43.63
2017-09-25T08:57:26.801Z,43.35
2017-09-25T08:58:26.808Z,44.81
2017-09-25T08:59:26.819Z,43.44
2017-09-25T09:00:26.821Z,43.44
2017-09-25T09:01:26.974Z,45.07
2017-09-25T09:02:26.980Z,45.94
2017-09-25T09:03:26.835Z,46.22
2017-09-25T09:04:26.841Z,47.16
2017-09-25T09:05:26.844Z,46.20
2017-09-25T09:06:26.846Z,45.89
2017-09-25T09:07:26.851Z,45.98
2017-09-25T09:08:27.003Z,45.98
2017-09-25T09:09:27.005Z,45.98
2017-09-25T09:10:26.857Z,46.56
2017-09-25T09:11:26.858Z,45.96
2017-09-25T09:12:26.857Z,47.39
2017-09-25T09:13:26.856Z,46.80
2017-09-25T09:14:27.005Z,46.61
2017-09-25T09:15:26.855Z,47.27
2017-09-25T09:16:27.154Z,47.27
2017-09-25T09:17:26.848Z,48.61
2017-09-25T09:18:26.848Z,49.09
2017-09-25T09:19:26.843Z,48.99
2017-09-25T09:20:27.092Z,48.99
2017-09-25T09:21:26.838Z,49.09
2017-09-25T09:22:26.834Z,49.28
2017-09-25T09:23:26.830Z,48.80
2017-09-25T09:24:26.832Z,46.61
2017-09-25T09:25:26.822Z,45.77
2017-09-25T09:26:26.971Z,47.39
2017-09-25T09:27:26.810Z,48.25
2017-09-25T09:28:26.805Z,45.67
2017-09-25T09:29:26.802Z,44.98
2017-09-25T09:30:26.794Z,44.98
2017-09-25T09:31:26.791Z,44.89
2017-09-25T09:32:26.986Z,44.89
2017-09-25T09:33:26.780Z,45.65
2017-09-25T09:34:26.772Z,45.56
2017-09-25T09:35:26.766Z,44.41
2017-09-25T09:36:26.911Z,44.02
2017-09-25T09:37:26.754Z,45.46
2017-09-25T09:38:26.898Z,44.12
2017-09-25T09:39:26.741Z,44.79
2017-09-25T09:40:26.735Z,45.56
2017-09-25T09:41:26.727Z,46.22
2017-09-25T09:42:26.719Z,47.75
2017-09-25T09:43:26.716Z,47.37
2017-09-25T09:44:27.008Z,46.22
2017-09-25T09:45:26.700Z,45.87
2017-09-25T09:46:26.994Z,46.72
2017-09-25T09:47:26.685Z,47.13
2017-09-25T09:48:26.678Z,44.45
2017-09-25T09:49:26.672Z,43.69
2017-09-25T09:50:26.815Z,43.52
2017-09-25T09:51:26.664Z,45.53
2017-09-25T09:52:26.649Z,42.76
2017-09-25T09:53:26.648Z,44.86
2017-09-25T09:54:26.637Z,44.95
2017-09-25T09:55:26.929Z,45.53
2017-09-25T09:56:26.905Z,45.53
2017-09-25T09:57:26.616Z,45.22
2017-09-25T09:58:26.607Z,45.89
2017-09-25T09:59:26.602Z,47.13
2017-09-25T10:00:26.599Z,47.32
2017-09-25T10:01:26.585Z,46.84
2017-09-25T10:02:26.829Z,47.42
2017-09-25T10:03:26.573Z,47.89
2017-09-25T10:04:26.566Z,48.66
2017-09-25T10:05:26.557Z,49.33
2017-09-25T10:06:26.549Z,49.23
2017-09-25T10:07:26.544Z,48.66
2017-09-25T10:08:26.838Z,49.14
2017-09-25T10:09:26.535Z,50.95
2017-09-25T10:10:26.521Z,49.80
2017-09-25T10:11:26.513Z,50.86
2017-09-25T10:12:26.507Z,50.41
2017-09-25T10:13:26.502Z,49.84
2017-09-25T10:14:26.792Z,47.92
2017-09-25T10:15:26.483Z,48.11
2017-09-25T10:16:26.475Z,48.30
2017-09-25T10:17:26.468Z,46.96
2017-09-25T10:18:26.463Z,48.28
2017-09-25T10:19:26.454Z,50.48
2017-09-25T10:20:26.747Z,48.38
2017-09-25T10:21:26.438Z,49.04
2017-09-25T10:22:26.431Z,48.38
2017-09-25T10:23:26.424Z,48.75
2017-09-25T10:24:26.415Z,47.52
2017-09-25T10:25:26.406Z,50.76
2017-09-25T10:26:26.650Z,49.80
2017-09-25T10:27:26.392Z,46.94
2017-09-25T10:28:26.391Z,49.80
2017-09-25T10:29:26.376Z,45.81
2017-09-25T10:30:26.368Z,45.91
2017-09-25T10:31:26.361Z,47.06
2017-09-25T10:32:26.503Z,47.53
2017-09-25T10:33:26.344Z,48.97
2017-09-25T10:34:26.337Z,46.75
2017-09-25T10:35:26.330Z,46.56
2017-09-25T10:36:26.322Z,46.27
2017-09-25T10:37:26.316Z,45.51
2017-09-25T10:38:26.455Z,41.30
2017-09-25T10:39:26.447Z,44.45
2017-09-25T10:40:26.290Z,43.71
2017-09-25T10:41:26.283Z,42.27
2017-09-25T10:42:26.274Z,40.55
2017-09-25T10:43:26.266Z,42.37
2017-09-25T10:44:26.261Z,40.86
2017-09-25T10:45:26.502Z,33.95
2017-09-25T10:46:26.243Z,32.62
2017-09-25T10:47:26.234Z,40.58
2017-09-25T10:48:26.228Z,35.22
2017-09-25T10:49:26.219Z,34.74
2017-09-25T10:50:26.210Z,35.88
2017-09-25T10:51:26.356Z,36.27
2017-09-25T10:52:26.196Z,36.65
2017-09-25T10:53:26.187Z,39.16
2017-09-25T10:54:26.177Z,35.88
2017-09-25T10:55:26.170Z,34.45
2017-09-25T10:56:26.162Z,35.69
2017-09-25T10:57:26.409Z,36.36
2017-09-25T10:58:26.149Z,37.21
2017-09-25T10:59:26.141Z,35.77
2017-09-25T11:00:26.134Z,34.72
2017-09-25T11:01:26.124Z,34.05
2017-09-25T11:02:26.117Z,33.86
2017-09-25T11:03:26.259Z,32.62
2017-09-25T11:04:26.102Z,33.57
2017-09-25T11:05:26.095Z,36.63
2017-09-25T11:06:26.086Z,38.64
2017-09-25T11:07:26.079Z,35.79
2017-09-25T11:08:26.072Z,34.16
2017-09-25T11:09:26.311Z,35.52
2017-09-25T11:10:26.053Z,35.04
2017-09-25T11:11:26.047Z,34.00
2017-09-25T11:12:26.040Z,36.02
2017-09-25T11:13:26.031Z,35.44
2017-09-25T11:14:26.025Z,36.69
2017-09-25T11:15:26.166Z,35.92
2017-09-25T11:16:26.161Z,35.44
2017-09-25T11:17:26.002Z,36.98
2017-09-25T11:18:25.995Z,38.24
2017-09-25T11:19:25.988Z,36.61
2017-09-25T11:20:25.981Z,36.32
2017-09-25T11:21:25.975Z,36.90
2017-09-25T11:22:26.216Z,38.22
2017-09-25T11:23:25.959Z,37.65
2017-09-25T11:24:25.953Z,36.61
2017-09-25T11:25:25.946Z,36.40
2017-09-25T11:26:25.937Z,35.92
2017-09-25T11:27:25.932Z,36.21
2017-09-25T11:28:26.175Z,34.87
2017-09-25T11:29:25.916Z,35.83
2017-09-25T11:30:25.910Z,36.02
2017-09-25T11:31:25.904Z,36.88
2017-09-25T11:32:25.896Z,37.26
2017-09-25T11:33:25.887Z,37.55
2017-09-25T11:34:26.031Z,38.30
2017-09-25T11:35:25.875Z,38.30
2017-09-25T11:36:25.867Z,38.87
2017-09-25T11:37:25.861Z,39.16
2017-09-25T11:38:25.852Z,41.17
2017-09-25T11:39:25.847Z,39.16
2017-09-25T11:40:25.989Z,38.78
2017-09-25T11:41:25.831Z,39.35
2017-09-25T11:42:25.825Z,38.87
2017-09-25T11:43:25.818Z,38.78
2017-09-25T11:44:25.811Z,39.33
2017-09-25T11:45:25.805Z,39.72
2017-09-25T11:46:25.945Z,38.56
2017-09-25T11:47:25.789Z,39.14
2017-09-25T11:48:25.783Z,40.00
2017-09-25T11:49:25.775Z,37.90
2017-09-25T11:50:25.766Z,39.43
2017-09-25T11:51:25.759Z,38.76
2017-09-25T11:52:25.904Z,39.04
2017-09-25T11:53:25.746Z,40.67
2017-09-25T11:54:25.737Z,42.40
2017-09-25T11:55:25.732Z,41.24
2017-09-25T11:56:25.725Z,40.65
2017-09-25T11:57:25.717Z,40.55
2017-09-25T11:58:25.859Z,42.47
2017-09-25T11:59:25.702Z,42.47
2017-09-25T12:00:25.695Z,39.31
2017-09-25T12:01:25.685Z,39.50
2017-09-25T12:02:25.882Z,40.55
2017-09-25T12:03:25.670Z,39.69
2017-09-25T12:04:25.814Z,40.08
2017-09-25T12:05:25.655Z,39.96
2017-09-25T12:06:25.649Z,41.13
2017-09-25T12:07:25.641Z,42.08
2017-09-25T12:08:25.633Z,43.40
2017-09-25T12:09:25.625Z,40.82
2017-09-25T12:10:25.917Z,42.76
2017-09-25T12:11:25.610Z,42.18
2017-09-25T12:12:25.602Z,40.26
2017-09-25T12:13:25.595Z,39.31
2017-09-25T12:14:25.588Z,39.12
2017-09-25T12:15:25.579Z,42.47
2017-09-25T12:16:25.821Z,38.74
2017-09-25T12:17:25.563Z,39.60
2017-09-25T12:18:25.593Z,38.54
2017-09-25T12:19:25.547Z,37.68
2017-09-25T12:20:25.691Z,40.65
2017-09-25T12:21:25.532Z,42.08
2017-09-25T12:22:25.678Z,38.74
2017-09-25T12:23:25.517Z,37.30
2017-09-25T12:24:25.509Z,37.21
2017-09-25T12:25:25.499Z,38.07
2017-09-25T12:26:25.491Z,38.17
2017-09-25T12:27:25.485Z,38.17
2017-09-25T12:28:25.729Z,38.26
2017-09-25T12:29:25.469Z,36.92
2017-09-25T12:30:25.461Z,37.49
2017-09-25T12:31:25.604Z,36.35
2017-09-25T12:32:25.445Z,35.96
2017-09-25T12:33:25.437Z,36.25
2017-09-25T12:34:25.628Z,35.77
2017-09-25T12:35:25.426Z,35.20
2017-09-25T12:36:25.415Z,33.95
2017-09-25T12:37:25.406Z,34.34
2017-09-25T12:38:25.549Z,35.20
2017-09-25T12:39:25.390Z,34.81
2017-09-25T12:40:25.534Z,34.72
2017-09-25T12:41:25.374Z,35.29
2017-09-25T12:42:25.367Z,36.35
2017-09-25T12:43:25.361Z,35.10
2017-09-25T12:44:25.352Z,33.86
2017-09-25T12:45:25.344Z,34.14
2017-09-25T12:46:25.489Z,33.48
2017-09-25T12:47:25.329Z,35.86
2017-09-25T12:48:25.321Z,34.81
2017-09-25T12:49:25.313Z,34.53
2017-09-25T12:50:25.305Z,35.49
2017-09-25T12:51:25.301Z,35.49
2017-09-25T12:52:25.441Z,35.39
2017-09-25T12:53:25.281Z,35.31
2017-09-25T12:54:25.274Z,35.98